Hitachi, Japan
Current Conditions -  °F | °C
As of 9:00 AM on Monday 26 Jan 2015 (Local Time) from RJAH Reporting Station
Haze Haze  
Wind Chill: 45°   Ceiling: 1500
Heat Index: 45°   Visibility: 3mi
Dew Point: 39°   Wind: 3mph
Humidity: 81%   Direction: 350°N
Pressure: 30.21"   Gusts: NA
Location:  36.59°N, 140.66°E
Report Text: RJAH 260000Z 35003KT 5000 BR FEW012 BKN015 BKN200 07/04 Q1023
Loading
Personal Weather Stations






























Interactive Weather Map New forecast layout! Learn more

10-Day Weather Forecast

Advertisements
Track Severe Weather on mobile